ENRY

Moss , Rygge Airport

Rygge, Norway
METAR ENRY 241420Z AUTO 31007KT 280V350 9999NDV NCD 23/06 Q1015
Observed Flight Rules
Jun-24 @ 14:20 UTC (39 minutes ago)
Wind Clouds
310° at 7 knots
  • Clear skies
Temperatures Readings
Current 23°C / 73°F
Dewpoint 6°C / 43°F
Humidity 33%
Altimeter 29.97" Hg
Pressure 1015 hPa
Elevation 53
METAR ENRY 241420Z AUTO 31007KT 280V350 9999NDV NCD 23/06 Q1015
Observed Flight Rules
Jun-24 @ 14:20 UTC
(39 minutes ago)
Wind
310° at 7 knots
Clouds
  • Clear skies
Temperature Dewpoint
23°C / 73°F 6°C / 43°F
Humidity Altimeter Pressure
33% 29.97" Hg 1015 hPa